Time;durP1;ratioP1;P1;durP2;ratioP2;P2;SDS_P1;SDS_P2;PMS_P1;PMS_P2;Temp;Humidity;BMP_temperature;BMP_pressure;BME280_temperature;BME280_humidity;BME280_pressure;Samples;Min_cycle;Max_cycle;Signal;HPM_P1;HPM_P2
2023/10/14 00:00:27;;;;;;;1999.90;999.90;;;18.80;99.90;;;;;;5110604;28;20465;-73
2023/10/14 00:03:01;;;;;;;1999.90;999.90;;;18.70;99.90;;;;;;5093364;28;20464;-73
2023/10/14 00:05:28;;;;;;;1999.90;999.90;;;18.70;99.90;;;;;;5093807;28;20463;-73
2023/10/14 00:07:55;;;;;;;1999.90;999.90;;;18.60;99.90;;;;;;5102037;28;20429;-73
2023/10/14 00:10:22;;;;;;;1999.90;999.90;;;18.50;99.90;;;;;;5098794;28;20424;-73
2023/10/14 00:12:53;;;;;;;1999.90;999.90;;;18.40;99.90;;;;;;5101268;28;20421;-73
2023/10/14 00:15:20;;;;;;;1999.90;999.90;;;18.40;99.90;;;;;;5093689;28;20504;-73
2023/10/14 00:17:49;;;;;;;1999.90;999.90;;;18.40;99.90;;;;;;5095133;28;20487;-74
2023/10/14 00:20:17;;;;;;;1999.90;999.90;;;18.30;99.90;;;;;;5101443;28;20932;-73
2023/10/14 00:22:45;;;;;;;1999.90;999.90;;;18.30;99.90;;;;;;5096049;28;20455;-74
2023/10/14 00:25:19;;;;;;;1999.90;999.90;;;18.40;99.90;;;;;;5093699;28;20980;-73
2023/10/14 00:27:46;;;;;;;1999.90;999.90;;;18.40;99.90;;;;;;5099011;28;20458;-73
2023/10/14 00:30:14;;;;;;;1999.90;999.90;;;18.50;99.90;;;;;;5100026;28;20478;-73
2023/10/14 00:32:40;;;;;;;1999.90;999.90;;;18.40;99.90;;;;;;5109830;28;20428;-73
2023/10/14 00:35:09;;;;;;;1999.90;999.90;;;18.50;99.90;;;;;;5099014;28;20915;-73
2023/10/14 00:37:37;;;;;;;1999.90;999.90;;;18.50;99.90;;;;;;5095871;28;20441;-74
2023/10/14 00:40:10;;;;;;;1999.90;999.90;;;18.50;99.90;;;;;;5097657;28;20440;-73
2023/10/14 00:42:37;;;;;;;1999.90;999.90;;;18.50;99.90;;;;;;5105331;28;20428;-73
2023/10/14 00:45:09;;;;;;;1999.90;999.90;;;18.50;99.90;;;;;;5099958;28;20512;-73
2023/10/14 00:47:39;;;;;;;1999.90;999.90;;;18.40;99.90;;;;;;5094244;28;20438;-73
2023/10/14 00:50:21;;;;;;;1999.90;999.90;;;18.40;99.90;;;;;;5095224;28;20471;-73
2023/10/14 00:52:54;;;;;;;1999.90;999.90;;;18.40;99.90;;;;;;5095878;28;20428;-73
2023/10/14 00:55:24;;;;;;;1999.90;999.90;;;18.40;99.90;;;;;;5101732;28;20911;-73
2023/10/14 00:57:54;;;;;;;1999.90;999.90;;;18.50;99.90;;;;;;5098168;28;20439;-73
2023/10/14 01:00:22;;;;;;;1999.90;999.90;;;18.40;99.90;;;;;;5097089;28;20947;-74
2023/10/14 01:02:51;;;;;;;1999.90;999.90;;;18.40;99.90;;;;;;5094497;28;20439;-74
2023/10/14 01:05:20;;;;;;;1999.90;999.90;;;18.40;99.90;;;;;;5092034;28;20441;-73
2023/10/14 01:07:49;;;;;;;1999.90;999.90;;;18.40;99.90;;;;;;5090592;28;20915;-73
2023/10/14 01:10:24;;;;;;;1999.90;999.90;;;18.40;99.90;;;;;;5094157;28;20597;-73
2023/10/14 01:12:54;;;;;;;1999.90;999.90;;;18.50;99.90;;;;;;5097785;28;20485;-73
2023/10/14 01:15:21;;;;;;;1999.90;999.90;;;18.50;99.90;;;;;;5100263;28;20430;-72
2023/10/14 01:17:49;;;;;;;1999.90;999.90;;;18.40;99.90;;;;;;5092826;28;20799;-73
2023/10/14 01:20:36;;;;;;;1999.90;999.90;;;18.40;99.90;;;;;;5100749;28;20416;-73
2023/10/14 01:23:07;;;;;;;1999.90;999.90;;;18.50;99.90;;;;;;5095339;28;20448;-73
2023/10/14 01:25:40;;;;;;;1999.90;999.90;;;18.50;99.90;;;;;;5088543;28;20503;-73
2023/10/14 01:28:12;;;;;;;1999.90;999.90;;;18.60;99.90;;;;;;5102034;28;20428;-73
2023/10/14 01:30:50;;;;;;;1999.90;999.90;;;18.60;99.90;;;;;;5097247;28;20432;-73
2023/10/14 01:33:24;;;;;;;1999.90;999.90;;;18.70;99.90;;;;;;5088316;28;20479;-73
2023/10/14 01:35:52;;;;;;;1999.90;999.90;;;18.70;99.90;;;;;;5095327;28;20457;-73
2023/10/14 01:38:23;;;;;;;1999.90;999.90;;;18.80;99.90;;;;;;5103147;28;20427;-73
2023/10/14 01:40:50;;;;;;;1999.90;999.90;;;18.80;99.90;;;;;;5104030;28;20844;-73
2023/10/14 01:43:17;;;;;;;1999.90;999.90;;;18.80;99.90;;;;;;5105008;28;20422;-73
2023/10/14 01:45:50;;;;;;;1999.90;999.90;;;18.80;99.90;;;;;;5108267;28;20428;-73
2023/10/14 01:48:21;;;;;;;1999.90;999.90;;;18.90;99.90;;;;;;5106305;28;20432;-72
2023/10/14 01:50:52;;;;;;;1999.90;999.90;;;18.90;99.90;;;;;;5106328;28;20435;-73
2023/10/14 01:53:23;;;;;;;1999.90;999.90;;;19.00;99.90;;;;;;5097543;28;20938;-73
2023/10/14 01:55:53;;;;;;;1999.90;999.90;;;19.00;99.90;;;;;;5106527;28;20436;-73
2023/10/14 01:58:29;;;;;;;1999.90;999.90;;;19.50;99.90;;;;;;5104003;28;20435;-73
2023/10/14 02:01:04;;;;;;;1999.90;999.90;;;19.10;99.90;;;;;;5107028;28;20459;-73
2023/10/14 02:03:35;;;;;;;1999.90;999.90;;;19.10;99.90;;;;;;5108343;28;20469;-73
2023/10/14 02:06:10;;;;;;;1999.90;999.90;;;19.10;99.90;;;;;;5102480;28;20422;-73
2023/10/14 02:08:38;;;;;;;1999.90;999.90;;;19.20;99.90;;;;;;5100551;28;20438;-74
2023/10/14 02:11:05;;;;;;;1999.90;999.90;;;19.20;99.90;;;;;;5105821;28;20431;-73
2023/10/14 02:13:36;;;;;;;1999.90;999.90;;;19.30;99.90;;;;;;5107908;28;20507;-73
2023/10/14 02:16:07;;;;;;;1999.90;999.90;;;19.20;99.90;;;;;;5091466;28;20432;-73
2023/10/14 02:18:36;;;;;;;1999.90;999.90;;;19.20;99.90;;;;;;5100445;28;20432;-73
2023/10/14 02:21:11;;;;;;;1999.90;999.90;;;19.10;99.90;;;;;;5105798;28;20467;-73
2023/10/14 02:23:47;;;;;;;1999.90;999.90;;;19.00;99.90;;;;;;5106917;28;21197;-74
2023/10/14 02:26:16;;;;;;;1999.90;999.90;;;18.90;99.90;;;;;;5100802;28;20430;-73
2023/10/14 02:28:46;;;;;;;1999.90;999.90;;;18.70;99.90;;;;;;5102088;28;20804;-73
2023/10/14 02:31:17;;;;;;;1999.90;999.90;;;18.50;99.90;;;;;;5103439;28;20456;-73
2023/10/14 02:33:47;;;;;;;1999.90;999.90;;;18.40;99.90;;;;;;5106406;28;20905;-73
2023/10/14 02:36:17;;;;;;;1999.90;999.90;;;18.40;99.90;;;;;;5100808;28;20424;-73
2023/10/14 02:38:52;;;;;;;1999.90;999.90;;;18.50;99.90;;;;;;5109294;28;20428;-73
2023/10/14 02:41:21;;;;;;;1999.90;999.90;;;18.50;99.90;;;;;;5103465;28;20439;-73
2023/10/14 02:43:49;;;;;;;1999.90;999.90;;;18.60;99.90;;;;;;5102542;28;20434;-73
2023/10/14 02:46:20;;;;;;;1999.90;999.90;;;18.80;99.90;;;;;;5105892;28;20921;-73
2023/10/14 02:49:02;;;;;;;1999.90;999.90;;;18.80;99.90;;;;;;5106182;28;20495;-72
2023/10/14 02:51:42;;;;;;;1999.90;999.90;;;18.90;99.90;;;;;;5110282;28;20427;-74
2023/10/14 02:54:15;;;;;;;1999.90;999.90;;;18.80;99.90;;;;;;5102517;28;20427;-73
2023/10/14 02:56:55;;;;;;;1999.90;999.90;;;18.80;99.90;;;;;;5111029;28;20486;-73
2023/10/14 02:59:29;;;;;;;1999.90;999.90;;;19.10;99.90;;;;;;5109335;28;20514;-73
2023/10/14 03:02:14;;;;;;;1999.90;999.90;;;18.80;99.90;;;;;;5097810;28;20428;-73
2023/10/14 03:04:46;;;;;;;1999.90;999.90;;;18.90;99.90;;;;;;5105847;28;20446;-73
2023/10/14 03:07:21;;;;;;;1999.90;999.90;;;18.90;99.90;;;;;;5107256;28;20430;-73
2023/10/14 03:09:49;;;;;;;1999.90;999.90;;;18.80;99.90;;;;;;5110211;28;20432;-73
2023/10/14 03:12:18;;;;;;;1999.90;999.90;;;18.80;99.90;;;;;;5098406;28;20961;-73
2023/10/14 03:14:48;;;;;;;1999.90;999.90;;;18.90;99.90;;;;;;5105884;28;20430;-73
2023/10/14 03:17:21;;;;;;;1999.90;999.90;;;18.90;99.90;;;;;;5105759;28;20456;-73
2023/10/14 03:19:52;;;;;;;1999.90;999.90;;;19.00;99.90;;;;;;5109498;28;20471;-74
2023/10/14 03:22:22;;;;;;;1999.90;999.90;;;19.10;99.90;;;;;;5104625;28;20426;-73
2023/10/14 03:24:51;;;;;;;1999.90;999.90;;;19.10;99.90;;;;;;5108663;28;20428;-73
2023/10/14 03:27:20;;;;;;;1999.90;999.90;;;19.20;99.90;;;;;;5107013;28;20420;-73
2023/10/14 03:29:53;;;;;;;1999.90;999.90;;;19.10;99.90;;;;;;5108355;28;20424;-73
2023/10/14 03:32:28;;;;;;;1999.90;999.90;;;19.10;99.90;;;;;;5109408;28;20432;-73
2023/10/14 03:34:54;;;;;;;1999.90;999.90;;;19.00;99.90;;;;;;5100532;28;20454;-73
2023/10/14 03:37:25;;;;;;;1999.90;999.90;;;19.00;99.90;;;;;;5111861;28;20424;-73
2023/10/14 03:40:35;;;;;;;1999.90;999.90;;;19.00;99.90;;;;;;5108416;28;20436;-73
2023/10/14 03:42:52;;;;;;;1999.90;999.90;;;18.90;99.90;;;;;;5108443;28;20507;-73
2023/10/14 03:45:22;;;;;;;1999.90;999.90;;;18.80;99.90;;;;;;5094913;28;20969;-73
2023/10/14 03:47:52;;;;;;;1999.90;999.90;;;19.20;99.90;;;;;;5099509;28;20430;-72
2023/10/14 03:50:23;;;;;;;1999.90;999.90;;;18.40;99.90;;;;;;5111482;28;20436;-73
2023/10/14 03:52:52;;;;;;;1999.90;999.90;;;18.00;99.90;;;;;;5107369;28;21046;-72
2023/10/14 03:55:25;;;;;;;1999.90;999.90;;;17.80;99.90;;;;;;5103878;28;20433;-73
2023/10/14 03:57:53;;;;;;;1999.90;999.90;;;17.60;99.90;;;;;;5098744;28;20566;-73
2023/10/14 04:00:36;;;;;;;1999.90;999.90;;;17.40;99.90;;;;;;5105266;28;20428;-73
2023/10/14 04:03:06;;;;;;;1999.90;999.90;;;17.50;99.90;;;;;;5107470;28;20945;-73
2023/10/14 04:05:37;;;;;;;1999.90;999.90;;;17.30;99.90;;;;;;5103029;28;20804;-72
2023/10/14 04:08:05;;;;;;;1999.90;999.90;;;17.30;99.90;;;;;;5102169;28;20435;-73
2023/10/14 04:10:43;;;;;;;1999.90;999.90;;;17.30;99.90;;;;;;5105629;28;20515;-73
2023/10/14 04:13:13;;;;;;;1999.90;999.90;;;17.20;99.90;;;;;;5108761;28;20428;-73
2023/10/14 04:15:47;;;;;;;1999.90;999.90;;;17.20;99.90;;;;;;5110159;28;20451;-74
2023/10/14 04:18:15;;;;;;;1999.90;999.90;;;17.00;99.90;;;;;;5103631;28;20435;-74
2023/10/14 04:20:46;;;;;;;1999.90;999.90;;;16.30;99.90;;;;;;5103995;28;20521;-72
2023/10/14 04:23:26;;;;;;;1999.90;999.90;;;15.30;99.90;;;;;;5097862;28;20481;-72
2023/10/14 04:28:39;;;;;;;1999.90;999.90;;;14.20;99.90;;;;;;5107840;28;20897;-71
2023/10/14 04:31:08;;;;;;;1999.90;999.90;;;13.90;99.90;;;;;;5106426;28;20915;-70
2023/10/14 04:33:44;;;;;;;1999.90;999.90;;;13.60;99.90;;;;;;5103899;28;20942;-71
2023/10/14 04:39:12;;;;;;;1999.90;999.90;;;13.40;99.90;;;;;;5109870;28;20430;-71
2023/10/14 04:41:55;;;;;;;1999.90;999.90;;;13.40;99.90;;;;;;5106095;28;20428;-71
2023/10/14 04:44:23;;;;;;;1999.90;999.90;;;13.40;99.90;;;;;;5103009;28;20420;-72
2023/10/14 04:46:55;;;;;;;1999.90;999.90;;;13.40;99.90;;;;;;5104759;28;20453;-72
2023/10/14 04:49:35;;;;;;;1999.90;999.90;;;13.40;99.90;;;;;;5109112;28;20481;-71
2023/10/14 04:52:04;;;;;;;1999.90;999.90;;;13.40;99.90;;;;;;5102408;28;20422;-71
2023/10/14 04:54:34;;;;;;;1999.90;999.90;;;13.40;99.90;;;;;;5096914;28;20429;-72
2023/10/14 04:57:19;;;;;;;1999.90;999.90;;;13.30;99.90;;;;;;5101917;28;20428;-71
2023/10/14 04:59:51;;;;;;;1999.90;999.90;;;13.20;99.90;;;;;;5099085;28;20425;-71
2023/10/14 05:02:20;;;;;;;1999.90;999.90;;;13.10;99.90;;;;;;5107353;28;20439;-71
2023/10/14 05:04:48;;;;;;;1999.90;999.90;;;13.10;99.90;;;;;;5104170;28;20449;-71
2023/10/14 05:07:15;;;;;;;1999.90;999.90;;;13.00;99.90;;;;;;5100398;28;21249;-71
2023/10/14 05:09:49;;;;;;;1999.90;999.90;;;13.00;99.90;;;;;;5104259;28;20520;-71
2023/10/14 05:12:24;;;;;;;1999.90;999.90;;;13.10;99.90;;;;;;5105958;28;20431;-72
2023/10/14 05:14:51;;;;;;;1999.90;999.90;;;13.00;99.90;;;;;;5098607;28;20434;-71
2023/10/14 05:17:18;;;;;;;1999.90;999.90;;;13.00;99.90;;;;;;5097545;28;20415;-72
2023/10/14 05:19:47;;;;;;;1999.90;999.90;;;12.90;99.90;;;;;;5107390;28;20424;-71
2023/10/14 05:22:18;;;;;;;1999.90;999.90;;;12.90;99.90;;;;;;5102404;28;20433;-71
2023/10/14 05:24:52;;;;;;;1999.90;999.90;;;12.90;99.90;;;;;;5101211;28;20420;-71
2023/10/14 05:27:21;;;;;;;1999.90;999.90;;;13.00;99.90;;;;;;5098703;28;20512;-71
2023/10/14 05:29:50;;;;;;;1999.90;999.90;;;13.10;99.90;;;;;;5105859;28;20428;-71
2023/10/14 05:32:18;;;;;;;1999.90;999.90;;;13.20;99.90;;;;;;5109768;28;20428;-72
2023/10/14 05:34:45;;;;;;;1999.90;999.90;;;13.20;99.90;;;;;;5101966;28;20430;-71
2023/10/14 05:37:13;;;;;;;1999.90;999.90;;;13.20;99.90;;;;;;5100541;28;20442;-72
2023/10/14 05:39:40;;;;;;;1999.90;999.90;;;13.20;99.90;;;;;;5102093;28;20940;-70
2023/10/14 05:42:13;;;;;;;1999.90;999.90;;;13.20;99.90;;;;;;5109962;28;20435;-71
2023/10/14 05:44:46;;;;;;;1999.90;999.90;;;13.20;99.90;;;;;;5106296;28;20580;-71
2023/10/14 05:47:13;;;;;;;1999.90;999.90;;;13.30;99.90;;;;;;5093191;28;20429;-71
2023/10/14 05:49:40;;;;;;;1999.90;999.90;;;13.30;99.90;;;;;;5098699;28;20429;-72
2023/10/14 05:52:08;;;;;;;1999.90;999.90;;;13.30;99.90;;;;;;5106469;28;20498;-71
2023/10/14 05:54:35;;;;;;;1999.90;999.90;;;13.30;99.90;;;;;;5106353;28;20438;-71
2023/10/14 05:57:03;;;;;;;1999.90;999.90;;;13.30;99.90;;;;;;5100798;28;20438;-72
2023/10/14 05:59:32;;;;;;;1999.90;999.90;;;13.20;99.90;;;;;;5107452;28;20475;-71
2023/10/14 06:02:00;;;;;;;1999.90;999.90;;;13.00;99.90;;;;;;5105175;28;20424;-71
2023/10/14 06:04:26;;;;;;;1999.90;999.90;;;12.80;99.90;;;;;;5106090;28;20795;-72
2023/10/14 06:06:53;;;;;;;1999.90;999.90;;;12.70;99.90;;;;;;5106180;28;20443;-70
2023/10/14 06:09:21;;;;;;;1999.90;999.90;;;12.80;99.90;;;;;;5101896;28;20435;-70
2023/10/14 06:11:48;;;;;;;1999.90;999.90;;;12.80;99.90;;;;;;5105295;28;20965;-71
2023/10/14 06:14:14;;;;;;;1999.90;999.90;;;12.70;99.90;;;;;;5105368;28;20423;-71
2023/10/14 06:16:41;;;;;;;1999.90;999.90;;;12.70;99.90;;;;;;5100185;28;20431;-70
2023/10/14 06:19:13;;;;;;;1999.90;999.90;;;12.70;99.90;;;;;;5099514;28;20498;-72
2023/10/14 06:21:39;;;;;;;1999.90;999.90;;;12.80;99.90;;;;;;5102291;28;20419;-71
2023/10/14 06:24:10;;;;;;;1999.90;999.90;;;12.70;99.90;;;;;;5092957;28;20425;-72
2023/10/14 06:26:37;;;;;;;1999.90;999.90;;;12.70;99.90;;;;;;5102523;28;20949;-72
2023/10/14 06:29:05;;;;;;;1999.90;999.90;;;12.80;99.90;;;;;;5103036;28;20410;-72
2023/10/14 06:31:37;;;;;;;1999.90;999.90;;;12.80;99.90;;;;;;5093867;28;20413;-73
2023/10/14 06:34:08;;;;;;;1999.90;999.90;;;12.90;99.90;;;;;;5102520;28;20968;-72
2023/10/14 06:36:37;;;;;;;1999.90;999.90;;;13.00;99.90;;;;;;5104912;28;20410;-72
2023/10/14 06:39:13;;;;;;;1999.90;999.90;;;13.00;99.90;;;;;;5093655;28;20409;-71
2023/10/14 06:41:43;;;;;;;1999.90;999.90;;;12.90;99.90;;;;;;5093602;28;20406;-71
2023/10/14 06:44:14;;;;;;;1999.90;999.90;;;12.90;99.90;;;;;;5101490;28;20803;-72
2023/10/14 06:46:44;;;;;;;1999.90;999.90;;;12.90;99.90;;;;;;5103337;28;20960;-72
2023/10/14 06:49:13;;;;;;;1999.90;999.90;;;12.90;99.90;;;;;;5108658;28;20442;-72
2023/10/14 06:51:43;;;;;;;1999.90;999.90;;;12.90;99.90;;;;;;5105395;28;20491;-72
2023/10/14 06:54:13;;;;;;;1999.90;999.90;;;12.90;99.90;;;;;;5105624;28;20441;-72
2023/10/14 06:56:44;;;;;;;1999.90;999.90;;;12.90;99.90;;;;;;5108603;28;20432;-72
2023/10/14 06:59:13;;;;;;;1999.90;999.90;;;13.00;99.90;;;;;;5105816;28;20475;-72
2023/10/14 07:01:39;;;;;;;1999.90;999.90;;;13.00;99.90;;;;;;5095710;28;20435;-72
2023/10/14 07:04:06;;;;;;;1999.90;999.90;;;13.10;99.90;;;;;;5107786;28;20420;-72
2023/10/14 07:06:33;;;;;;;1999.90;999.90;;;13.20;99.90;;;;;;5110013;28;20435;-73
2023/10/14 07:09:05;;;;;;;1999.90;999.90;;;13.30;99.90;;;;;;5103078;28;20439;-72
2023/10/14 07:11:32;;;;;;;1999.90;999.90;;;13.30;99.90;;;;;;5100041;28;20428;-72
2023/10/14 07:13:58;;;;;;;1999.90;999.90;;;13.40;99.90;;;;;;5095514;28;20426;-72
2023/10/14 07:16:25;;;;;;;1999.90;999.90;;;13.30;99.90;;;;;;5103213;28;20420;-72
2023/10/14 07:18:52;;;;;;;1999.90;999.90;;;13.40;99.90;;;;;;5109562;28;20643;-72
2023/10/14 07:21:19;;;;;;;1999.90;999.90;;;13.50;99.90;;;;;;5107660;28;20436;-72
2023/10/14 07:23:46;;;;;;;1999.90;999.90;;;13.50;99.90;;;;;;5105928;28;20499;-72
2023/10/14 07:26:15;;;;;;;1999.90;999.90;;;13.60;99.90;;;;;;5108038;28;20436;-71
2023/10/14 07:28:44;;;;;;;1999.90;999.90;;;13.60;99.90;;;;;;5098101;28;20908;-72
2023/10/14 07:31:12;;;;;;;1999.90;999.90;;;13.70;99.90;;;;;;5105905;28;20457;-72
2023/10/14 07:33:40;;;;;;;1999.90;999.90;;;13.80;99.90;;;;;;5101387;28;20428;-72
2023/10/14 07:36:07;;;;;;;1999.90;999.90;;;14.00;99.90;;;;;;5104584;28;20426;-73
2023/10/14 07:38:35;;;;;;;1999.90;999.90;;;14.10;99.90;;;;;;5093877;28;22384;-72
2023/10/14 07:41:03;;;;;;;1999.90;999.90;;;14.00;99.90;;;;;;5107855;28;20515;-73
2023/10/14 07:43:33;;;;;;;1999.90;999.90;;;14.00;99.90;;;;;;5103106;28;20424;-73
2023/10/14 07:46:01;;;;;;;1999.90;999.90;;;14.10;99.90;;;;;;5104906;28;20451;-71
2023/10/14 07:48:28;;;;;;;1999.90;999.90;;;14.10;99.90;;;;;;5103299;28;20431;-73
2023/10/14 07:50:56;;;;;;;1999.90;999.90;;;14.20;99.90;;;;;;5101125;28;20937;-73
2023/10/14 07:53:24;;;;;;;1999.90;999.90;;;14.30;99.90;;;;;;5102513;28;20505;-74
2023/10/14 07:55:53;;;;;;;1999.90;999.90;;;14.30;99.90;;;;;;5099797;28;20851;-73
2023/10/14 07:58:23;;;;;;;1999.90;999.90;;;14.40;99.90;;;;;;5097083;28;20429;-74
2023/10/14 08:00:53;;;;;;;1999.90;999.90;;;14.40;99.90;;;;;;5108326;28;20460;-73
2023/10/14 08:03:21;;;;;;;1999.90;999.90;;;14.40;99.90;;;;;;5101841;28;20445;-73
2023/10/14 08:05:49;;;;;;;1999.90;999.90;;;14.50;99.90;;;;;;5103873;28;20428;-74
2023/10/14 08:08:17;;;;;;;1999.90;999.90;;;14.60;99.90;;;;;;5095211;28;20430;-74
2023/10/14 08:10:45;;;;;;;1999.90;999.90;;;14.70;99.90;;;;;;5102721;28;20447;-73
2023/10/14 08:13:13;;;;;;;1999.90;999.90;;;15.00;99.90;;;;;;5103211;27;20926;-74
2023/10/14 08:15:41;;;;;;;1999.90;999.90;;;15.20;99.90;;;;;;5109538;28;20424;-74
2023/10/14 08:18:11;;;;;;;1999.90;999.90;;;15.40;99.90;;;;;;5100055;28;20473;-74
2023/10/14 08:20:38;;;;;;;1999.90;999.90;;;15.30;99.90;;;;;;5102821;28;20767;-73
2023/10/14 08:23:09;;;;;;;1999.90;999.90;;;15.60;99.90;;;;;;5100846;28;20431;-74
2023/10/14 08:25:37;;;;;;;1999.90;999.90;;;15.70;99.90;;;;;;5106626;28;20428;-74
2023/10/14 08:28:05;;;;;;;1999.90;999.90;;;15.80;99.90;;;;;;5106374;28;20915;-74
2023/10/14 08:30:34;;;;;;;1999.90;999.90;;;16.00;99.90;;;;;;5105141;28;20481;-74
2023/10/14 08:33:02;;;;;;;1999.90;999.90;;;16.00;99.90;;;;;;5103964;28;20428;-74
2023/10/14 08:35:31;;;;;;;1999.90;999.90;;;16.10;99.90;;;;;;5104603;28;20462;-74
2023/10/14 08:37:59;;;;;;;1999.90;999.90;;;16.10;99.90;;;;;;5097392;28;20786;-74
2023/10/14 08:40:26;;;;;;;1999.90;999.90;;;16.20;99.90;;;;;;5110041;28;20978;-74
2023/10/14 08:42:57;;;;;;;1999.90;999.90;;;16.30;99.90;;;;;;5100461;28;20436;-73
2023/10/14 08:45:26;;;;;;;1999.90;999.90;;;16.10;99.90;;;;;;5098066;28;20416;-74
2023/10/14 08:47:54;;;;;;;1999.90;999.90;;;16.30;99.90;;;;;;5104514;28;20427;-73
2023/10/14 08:50:23;;;;;;;1999.90;999.90;;;16.20;99.90;;;;;;5100782;28;20516;-74
2023/10/14 08:52:53;;;;;;;1999.90;999.90;;;16.20;99.90;;;;;;5106686;28;20919;-74
2023/10/14 08:55:21;;;;;;;1999.90;999.90;;;16.20;99.90;;;;;;5110202;28;20424;-74
2023/10/14 08:57:48;;;;;;;1999.90;999.90;;;16.10;99.90;;;;;;5097451;28;20435;-73
2023/10/14 09:00:20;;;;;;;1999.90;999.90;;;16.00;99.90;;;;;;5095928;28;20429;-75
2023/10/14 09:02:51;;;;;;;1999.90;999.90;;;15.80;99.90;;;;;;5105156;28;20428;-74
2023/10/14 09:05:18;;;;;;;1999.90;999.90;;;15.50;99.90;;;;;;5107634;28;20428;-74
2023/10/14 09:07:48;;;;;;;1999.90;999.90;;;15.30;99.90;;;;;;5105370;28;20428;-74
2023/10/14 09:10:19;;;;;;;1999.90;999.90;;;15.60;99.90;;;;;;5096132;28;20452;-74
2023/10/14 09:12:57;;;;;;;1999.90;999.90;;;15.10;99.90;;;;;;5095319;28;20435;-74
2023/10/14 09:15:26;;;;;;;1999.90;999.90;;;15.20;99.90;;;;;;5107018;28;20420;-74
2023/10/14 09:17:57;;;;;;;1999.90;999.90;;;15.20;99.90;;;;;;5098722;28;20536;-73
2023/10/14 09:20:32;;;;;;;1999.90;999.90;;;15.10;99.90;;;;;;5110095;28;20423;-74
2023/10/14 09:23:14;;;;;;;1999.90;999.90;;;15.10;99.90;;;;;;5092124;28;20431;-73
2023/10/14 09:25:43;;;;;;;1999.90;999.90;;;15.20;99.90;;;;;;5100876;28;20938;-73
2023/10/14 09:28:10;;;;;;;1999.90;999.90;;;15.30;99.90;;;;;;5096262;28;20916;-75
2023/10/14 09:30:39;;;;;;;1999.90;999.90;;;15.40;99.90;;;;;;5105261;28;20428;-72
2023/10/14 09:33:06;;;;;;;1999.90;999.90;;;15.30;99.90;;;;;;5108671;28;20842;-74
2023/10/14 09:35:34;;;;;;;1999.90;999.90;;;15.50;99.90;;;;;;5106164;28;20437;-74
2023/10/14 09:38:00;;;;;;;1999.90;999.90;;;15.60;99.90;;;;;;5095825;28;20420;-74
2023/10/14 09:40:27;;;;;;;1999.90;999.90;;;15.60;99.90;;;;;;5103535;28;20430;-74
2023/10/14 09:42:57;;;;;;;1999.90;999.90;;;15.50;99.90;;;;;;5103114;28;20428;-74
2023/10/14 09:45:24;;;;;;;1999.90;999.90;;;15.50;99.90;;;;;;5109411;28;20427;-74
2023/10/14 09:47:57;;;;;;;1999.90;999.90;;;15.60;99.90;;;;;;5099701;28;20426;-74
2023/10/14 09:50:25;;;;;;;1999.90;999.90;;;15.90;99.90;;;;;;5093717;28;20494;-74
2023/10/14 09:52:53;;;;;;;1999.90;999.90;;;16.00;99.90;;;;;;5100667;28;20440;-74
2023/10/14 09:55:21;;;;;;;1999.90;999.90;;;15.90;99.90;;;;;;5109208;28;20424;-74
2023/10/14 09:57:48;;;;;;;1999.90;999.90;;;15.90;99.90;;;;;;5102244;28;22326;-74
2023/10/14 10:00:17;;;;;;;1999.90;999.90;;;15.70;99.90;;;;;;5104861;28;20445;-74
2023/10/14 10:02:47;;;;;;;1999.90;999.90;;;15.90;99.90;;;;;;5103678;28;20457;-74
2023/10/14 10:05:19;;;;;;;1999.90;999.90;;;15.70;99.90;;;;;;5104804;28;20503;-74
2023/10/14 10:07:54;;;;;;;1999.90;999.90;;;15.70;99.90;;;;;;5101675;28;20430;-74
2023/10/14 10:10:25;;;;;;;1999.90;999.90;;;16.00;99.90;;;;;;5109636;28;20423;-74
2023/10/14 10:12:55;;;;;;;1999.90;999.90;;;16.10;99.90;;;;;;5109844;28;20432;-74
2023/10/14 10:15:24;;;;;;;1999.90;999.90;;;16.10;99.90;;;;;;5103954;28;20528;-74
2023/10/14 10:17:56;;;;;;;1999.90;999.90;;;16.10;99.90;;;;;;5098958;28;20432;-73
2023/10/14 10:20:28;;;;;;;1999.90;999.90;;;16.20;99.90;;;;;;5104096;28;20576;-74
2023/10/14 10:22:57;;;;;;;1999.90;999.90;;;16.40;99.90;;;;;;5100151;28;20433;-74
2023/10/14 10:25:49;;;;;;;1999.90;999.90;;;16.30;99.90;;;;;;5109953;28;20420;-74
2023/10/14 10:28:39;;;;;;;1999.90;999.90;;;16.00;99.90;;;;;;5094386;28;20429;-74
2023/10/14 10:31:09;;;;;;;1999.90;999.90;;;16.00;99.90;;;;;;5099386;28;20418;-74
2023/10/14 10:33:54;;;;;;;1999.90;999.90;;;16.00;99.90;;;;;;5098896;28;20436;-74
2023/10/14 10:36:24;;;;;;;1999.90;999.90;;;16.30;99.90;;;;;;5101291;28;20427;-74
2023/10/14 10:38:55;;;;;;;1999.90;999.90;;;16.40;99.90;;;;;;5111865;28;20455;-74
2023/10/14 10:41:25;;;;;;;1999.90;999.90;;;16.70;99.90;;;;;;5099610;28;20449;-74
2023/10/14 10:43:53;;;;;;;1999.90;999.90;;;17.00;99.90;;;;;;5099729;28;20438;-74
2023/10/14 10:46:39;;;;;;;1999.90;999.90;;;17.10;99.90;;;;;;5100453;28;20426;-74
2023/10/14 10:49:11;;;;;;;1999.90;999.90;;;17.10;99.90;;;;;;5098339;28;20446;-74
2023/10/14 10:51:43;;;;;;;1999.90;999.90;;;17.30;99.90;;;;;;5103182;28;20427;-74
2023/10/14 10:54:12;;;;;;;1999.90;999.90;;;17.70;99.90;;;;;;5099130;28;20427;-74
2023/10/14 10:56:41;;;;;;;1999.90;999.90;;;17.70;99.90;;;;;;5101995;28;20426;-74
2023/10/14 10:59:07;;;;;;;1999.90;999.90;;;17.60;99.90;;;;;;5100981;28;20430;-74
2023/10/14 11:01:36;;;;;;;1999.90;999.90;;;17.60;99.90;;;;;;5095129;28;20592;-75
2023/10/14 11:04:08;;;;;;;1999.90;999.90;;;17.50;99.90;;;;;;5095367;28;20440;-75
2023/10/14 11:06:35;;;;;;;1999.90;999.90;;;17.60;99.90;;;;;;5103485;28;20459;-74
2023/10/14 11:09:03;;;;;;;1999.90;999.90;;;17.50;99.90;;;;;;5096702;28;20420;-74
2023/10/14 11:11:32;;;;;;;1999.90;999.90;;;17.30;99.90;;;;;;5103467;28;20476;-74
2023/10/14 11:14:00;;;;;;;1999.90;999.90;;;17.10;99.90;;;;;;5100071;28;20424;-74
2023/10/14 11:16:27;;;;;;;1999.90;999.90;;;17.10;99.90;;;;;;5108618;28;20424;-75
2023/10/14 11:18:57;;;;;;;1999.90;999.90;;;16.90;99.90;;;;;;5117174;28;20430;-75
2023/10/14 11:21:27;;;;;;;1999.90;999.90;;;16.40;99.90;;;;;;5118540;28;20421;-74
2023/10/14 11:23:55;;;;;;;1999.90;999.90;;;16.30;99.90;;;;;;5117266;28;20420;-75
2023/10/14 11:26:23;;;;;;;1999.90;999.90;;;16.10;99.90;;;;;;5122429;28;20420;-75
2023/10/14 11:28:50;;;;;;;1999.90;999.90;;;16.20;99.90;;;;;;5117042;28;20435;-75
2023/10/14 11:31:21;;;;;;;1999.90;999.90;;;16.40;99.90;;;;;;5094469;28;20437;-74
2023/10/14 11:33:48;;;;;;;1999.90;999.90;;;16.50;99.90;;;;;;5099774;28;20495;-74
2023/10/14 11:36:18;;;;;;;1999.90;999.90;;;16.30;99.90;;;;;;5105668;27;20424;-74
2023/10/14 11:38:47;;;;;;;1999.90;999.90;;;16.30;99.90;;;;;;5101547;28;20544;-75
2023/10/14 11:41:15;;;;;;;1999.90;999.90;;;16.20;99.90;;;;;;5103203;28;20508;-75
2023/10/14 11:43:45;;;;;;;1999.90;999.90;;;16.20;99.90;;;;;;5101420;28;20432;-75
2023/10/14 11:46:12;;;;;;;1999.90;999.90;;;16.30;99.90;;;;;;5100917;28;20428;-74
2023/10/14 11:48:39;;;;;;;1999.90;999.90;;;16.60;99.90;;;;;;5101672;28;20451;-75
2023/10/14 11:51:11;;;;;;;1999.90;999.90;;;16.50;99.90;;;;;;5105554;28;21069;-75
2023/10/14 11:53:44;;;;;;;1999.90;999.90;;;16.70;99.90;;;;;;5100151;28;20783;-75
2023/10/14 11:56:13;;;;;;;1999.90;999.90;;;16.70;99.90;;;;;;5109710;28;20782;-75
2023/10/14 11:58:41;;;;;;;1999.90;999.90;;;16.90;99.90;;;;;;5099487;28;20449;-75
2023/10/14 12:01:09;;;;;;;1999.90;999.90;;;17.00;99.90;;;;;;5098975;28;20477;-75
2023/10/14 12:03:35;;;;;;;1999.90;999.90;;;17.00;99.90;;;;;;5094059;28;20422;-75
2023/10/14 12:06:03;;;;;;;1999.90;999.90;;;16.80;99.90;;;;;;5101810;27;20434;-75
2023/10/14 12:08:32;;;;;;;1999.90;999.90;;;16.70;99.90;;;;;;5099782;28;20469;-75
2023/10/14 12:11:03;;;;;;;1999.90;999.90;;;16.40;99.90;;;;;;5102564;28;20786;-73
2023/10/14 12:13:31;;;;;;;1999.90;999.90;;;16.30;99.90;;;;;;5099885;28;20436;-74
2023/10/14 12:15:58;;;;;;;1999.90;999.90;;;16.20;99.90;;;;;;5106416;27;20460;-75
2023/10/14 12:18:25;;;;;;;1999.90;999.90;;;15.90;99.90;;;;;;5098426;27;20424;-75